createdAt,value
2023-05-23T00:02:08.238Z,52.74
2023-05-23T00:04:38.683Z,52.55
2023-05-23T00:07:06.308Z,52.63
2023-05-23T00:09:33.764Z,52.76
2023-05-23T00:12:01.992Z,52.75
2023-05-23T00:14:34.042Z,53.58
2023-05-23T00:17:02.004Z,53.25
2023-05-23T00:19:29.675Z,53.11
2023-05-23T00:21:58.483Z,53.21
2023-05-23T00:24:27.259Z,53.18
2023-05-23T00:26:54.802Z,53.07
2023-05-23T00:29:22.230Z,52.96
2023-05-23T00:31:50.824Z,53.00
2023-05-23T00:34:18.575Z,53.07
2023-05-23T00:36:48.077Z,52.91
2023-05-23T00:39:20.688Z,52.75
2023-05-23T00:41:52.138Z,52.89
2023-05-23T00:44:21.876Z,53.45
2023-05-23T00:46:53.311Z,53.09
2023-05-23T00:49:21.483Z,52.96
2023-05-23T00:51:52.045Z,52.76
2023-05-23T00:54:29.619Z,52.74
2023-05-23T00:56:58.409Z,52.97
2023-05-23T00:59:26.591Z,53.15
2023-05-23T01:01:56.460Z,53.34
2023-05-23T01:04:26.704Z,53.18
2023-05-23T01:06:55.585Z,53.03
2023-05-23T01:09:23.917Z,53.18
2023-05-23T01:12:10.831Z,53.37
2023-05-23T01:14:47.310Z,53.45
2023-05-23T01:17:24.996Z,53.60
2023-05-23T01:20:01.367Z,53.53
2023-05-23T01:23:00.419Z,53.38
2023-05-23T01:25:59.504Z,52.80
2023-05-23T01:28:33.988Z,52.83
2023-05-23T01:31:02.988Z,52.75
2023-05-23T01:33:32.179Z,53.13
2023-05-23T01:36:02.541Z,53.24
2023-05-23T01:38:30.189Z,52.93
2023-05-23T01:40:58.345Z,52.73
2023-05-23T01:43:25.959Z,52.78
2023-05-23T01:45:54.717Z,52.46
2023-05-23T01:48:24.076Z,53.25
2023-05-23T01:50:51.672Z,52.97
2023-05-23T01:53:21.597Z,53.06
2023-05-23T01:55:49.546Z,53.19
2023-05-23T01:58:17.434Z,53.08
2023-05-23T02:00:45.213Z,53.19
2023-05-23T02:03:13.146Z,53.12
2023-05-23T02:05:41.305Z,53.50
2023-05-23T02:08:09.164Z,53.66
2023-05-23T02:10:38.977Z,53.66
2023-05-23T02:13:06.511Z,53.93
2023-05-23T02:15:33.984Z,54.00
2023-05-23T02:18:03.305Z,54.26
2023-05-23T02:20:31.339Z,54.19
2023-05-23T02:22:59.085Z,54.33
2023-05-23T02:25:26.817Z,54.09
2023-05-23T02:27:54.298Z,54.05
2023-05-23T02:30:22.459Z,53.79
2023-05-23T02:32:50.310Z,53.93
2023-05-23T02:35:17.974Z,53.90
2023-05-23T02:37:46.286Z,53.75
2023-05-23T02:40:14.008Z,54.09
2023-05-23T02:42:42.264Z,53.86
2023-05-23T02:45:10.379Z,53.77
2023-05-23T02:47:38.063Z,53.78
2023-05-23T02:50:06.083Z,53.38
2023-05-23T02:52:34.155Z,53.41
2023-05-23T02:55:01.981Z,53.34
2023-05-23T02:57:29.749Z,53.69
2023-05-23T02:59:57.573Z,53.73
2023-05-23T03:02:25.143Z,53.60
2023-05-23T03:04:52.669Z,53.30
2023-05-23T03:07:27.486Z,53.23
2023-05-23T03:09:55.506Z,53.32
2023-05-23T03:12:23.359Z,52.72
2023-05-23T03:14:50.864Z,52.73
2023-05-23T03:17:18.433Z,52.68
2023-05-23T03:19:46.199Z,53.04
2023-05-23T03:22:13.700Z,53.54
2023-05-23T03:24:43.179Z,53.07
2023-05-23T03:27:11.850Z,53.03
2023-05-23T03:29:39.734Z,53.25
2023-05-23T03:32:07.377Z,53.27
2023-05-23T03:34:36.651Z,53.12
2023-05-23T03:37:04.599Z,52.87
2023-05-23T03:39:32.121Z,52.90
2023-05-23T03:41:59.939Z,53.11
2023-05-23T03:44:27.877Z,53.65
2023-05-23T03:46:55.652Z,53.37
2023-05-23T03:49:23.433Z,53.18
2023-05-23T03:51:51.552Z,53.08
2023-05-23T03:54:19.146Z,53.20
2023-05-23T03:56:46.953Z,53.15
2023-05-23T03:59:15.859Z,53.28
2023-05-23T04:01:43.659Z,53.33
2023-05-23T04:04:11.556Z,53.27
2023-05-23T04:06:39.542Z,53.52
2023-05-23T04:09:07.084Z,53.43
2023-05-23T04:11:35.570Z,53.43
2023-05-23T04:14:04.408Z,53.16
2023-05-23T04:16:33.452Z,53.04
2023-05-23T04:19:05.477Z,53.08
2023-05-23T04:21:33.917Z,53.20
2023-05-23T04:24:03.067Z,53.28
2023-05-23T04:26:30.972Z,53.20
2023-05-23T04:28:59.327Z,53.37
2023-05-23T04:31:27.288Z,53.32
2023-05-23T04:33:54.866Z,53.21
2023-05-23T04:36:23.634Z,52.94
2023-05-23T04:38:52.369Z,52.62
2023-05-23T04:41:23.528Z,52.38
2023-05-23T04:43:54.592Z,52.49
2023-05-23T04:46:26.465Z,52.32
2023-05-23T04:48:58.887Z,51.95
2023-05-23T04:51:26.527Z,52.02
2023-05-23T04:53:54.419Z,51.90
2023-05-23T04:56:27.357Z,51.90
2023-05-23T04:58:56.094Z,52.14
2023-05-23T05:01:24.904Z,51.89
2023-05-23T05:03:53.064Z,51.71
2023-05-23T05:06:21.742Z,51.68
2023-05-23T05:08:49.950Z,51.59
2023-05-23T05:11:17.465Z,51.29
2023-05-23T05:13:44.956Z,51.07
2023-05-23T05:16:12.789Z,50.78
2023-05-23T05:18:40.479Z,50.46
2023-05-23T05:21:08.301Z,50.07
2023-05-23T05:23:37.631Z,49.99
2023-05-23T05:26:06.523Z,50.19
2023-05-23T05:28:33.996Z,51.09
2023-05-23T05:31:05.214Z,51.14
2023-05-23T05:33:36.444Z,50.04
2023-05-23T05:36:06.608Z,49.54
2023-05-23T05:38:34.284Z,49.37
2023-05-23T05:41:01.820Z,50.30
2023-05-23T05:43:30.388Z,50.04
2023-05-23T05:45:57.897Z,50.21
2023-05-23T05:48:25.517Z,49.20
2023-05-23T05:50:54.022Z,48.98
2023-05-23T05:53:21.490Z,49.08
2023-05-23T05:55:49.032Z,48.16
2023-05-23T05:58:16.856Z,48.99
2023-05-23T06:00:45.441Z,49.36
2023-05-23T06:03:14.226Z,49.00
2023-05-23T06:05:43.323Z,47.86
2023-05-23T06:08:12.178Z,48.74
2023-05-23T06:10:40.184Z,48.28
2023-05-23T06:13:07.874Z,47.70
2023-05-23T06:15:36.106Z,48.41
2023-05-23T06:18:04.271Z,47.63
2023-05-23T06:20:32.031Z,46.98
2023-05-23T06:23:00.483Z,47.19
2023-05-23T06:25:28.476Z,46.71
2023-05-23T06:27:55.983Z,46.58
2023-05-23T06:30:24.471Z,45.89
2023-05-23T06:32:52.535Z,46.82
2023-05-23T06:35:20.129Z,47.16
2023-05-23T06:37:48.478Z,48.01
2023-05-23T06:40:16.376Z,46.66
2023-05-23T06:42:43.956Z,46.36
2023-05-23T06:45:12.822Z,46.09
2023-05-23T06:47:43.957Z,47.12
2023-05-23T06:50:11.690Z,47.30
2023-05-23T06:52:39.391Z,46.40
2023-05-23T06:55:07.431Z,46.13
2023-05-23T06:57:35.303Z,46.07
2023-05-23T07:00:02.990Z,46.22
2023-05-23T07:02:32.645Z,45.70
2023-05-23T07:05:00.355Z,45.39
2023-05-23T07:07:29.734Z,46.34
2023-05-23T07:09:57.497Z,46.12
2023-05-23T07:12:25.288Z,45.04
2023-05-23T07:14:52.828Z,44.39
2023-05-23T07:17:21.151Z,44.49
2023-05-23T07:19:48.944Z,44.73
2023-05-23T07:22:16.439Z,45.23
2023-05-23T07:24:44.496Z,45.60
2023-05-23T07:27:12.642Z,44.68
2023-05-23T07:29:40.087Z,45.16
2023-05-23T07:32:08.294Z,45.76
2023-05-23T07:34:35.797Z,45.35
2023-05-23T07:37:03.592Z,46.06
2023-05-23T07:39:32.039Z,45.63
2023-05-23T07:42:00.069Z,44.70
2023-05-23T07:44:28.630Z,44.93
2023-05-23T07:46:56.599Z,44.07
2023-05-23T07:49:24.374Z,44.67
2023-05-23T07:51:51.875Z,45.74
2023-05-23T07:54:19.635Z,43.97
2023-05-23T07:56:48.932Z,44.61
2023-05-23T07:59:16.754Z,43.37
2023-05-23T08:01:45.671Z,44.44
2023-05-23T08:04:13.839Z,42.75
2023-05-23T08:06:48.815Z,42.98
2023-05-23T08:09:24.932Z,42.25
2023-05-23T08:11:52.693Z,42.63
2023-05-23T08:14:21.823Z,43.07
2023-05-23T08:16:50.886Z,42.75
2023-05-23T08:19:18.940Z,43.26
2023-05-23T08:21:47.230Z,43.27
2023-05-23T08:24:15.529Z,43.19
2023-05-23T08:26:43.552Z,42.00
2023-05-23T08:29:11.321Z,43.22
2023-05-23T08:31:39.357Z,42.34
2023-05-23T08:34:08.023Z,40.66
2023-05-23T08:36:37.051Z,41.42
2023-05-23T08:39:05.856Z,41.29
2023-05-23T08:41:34.346Z,40.59
2023-05-23T08:44:02.250Z,40.90
2023-05-23T08:46:31.757Z,42.03
2023-05-23T08:49:01.101Z,43.72
2023-05-23T08:51:29.720Z,41.10
2023-05-23T08:53:59.458Z,41.98
2023-05-23T08:56:28.473Z,41.24
2023-05-23T08:58:58.191Z,42.01
2023-05-23T09:01:26.613Z,41.37
2023-05-23T09:03:55.980Z,42.43
2023-05-23T09:06:25.431Z,40.81
2023-05-23T09:08:54.129Z,39.43
2023-05-23T09:11:22.098Z,39.53
2023-05-23T09:13:49.944Z,39.38
2023-05-23T09:16:18.488Z,37.93
2023-05-23T09:18:46.574Z,38.59
2023-05-23T09:21:14.559Z,36.95
2023-05-23T09:23:43.964Z,36.74
2023-05-23T09:26:13.344Z,37.75
2023-05-23T09:28:43.245Z,38.25
2023-05-23T09:31:11.144Z,37.84
2023-05-23T09:33:49.494Z,39.06
2023-05-23T09:36:18.216Z,38.72
2023-05-23T09:38:47.107Z,38.31
2023-05-23T09:41:14.912Z,37.07
2023-05-23T09:43:52.597Z,37.42
2023-05-23T09:46:21.432Z,36.58
2023-05-23T09:48:53.907Z,36.18
2023-05-23T09:51:23.481Z,37.58
2023-05-23T09:53:53.007Z,39.19
2023-05-23T09:56:20.561Z,37.81
2023-05-23T09:58:49.822Z,38.07
2023-05-23T10:01:18.038Z,37.87
2023-05-23T10:03:50.896Z,37.85
2023-05-23T10:06:32.943Z,37.34
2023-05-23T10:09:08.736Z,36.23
2023-05-23T10:12:14.407Z,35.48
2023-05-23T10:14:46.188Z,34.31
2023-05-23T10:17:25.815Z,35.52
2023-05-23T10:20:10.291Z,35.49
2023-05-23T10:22:38.331Z,34.60
2023-05-23T10:25:07.509Z,35.49
2023-05-23T10:27:35.310Z,35.62
2023-05-23T10:30:02.843Z,36.06
2023-05-23T10:32:31.802Z,34.97
2023-05-23T10:34:59.185Z,34.75
2023-05-23T10:37:33.051Z,34.02
2023-05-23T10:40:29.156Z,33.27
2023-05-23T10:43:04.405Z,32.31
2023-05-23T10:45:42.383Z,32.81
2023-05-23T10:48:28.508Z,32.45
2023-05-23T10:51:06.184Z,33.46
2023-05-23T10:53:44.312Z,35.80
2023-05-23T10:56:22.477Z,35.55
2023-05-23T10:58:54.994Z,35.35
2023-05-23T11:01:23.989Z,33.94
2023-05-23T11:03:55.229Z,34.14
2023-05-23T11:06:39.266Z,35.36
2023-05-23T11:09:19.501Z,34.85
2023-05-23T11:11:53.574Z,35.00
2023-05-23T11:14:32.663Z,34.41
2023-05-23T11:17:30.780Z,32.20
2023-05-23T11:20:07.186Z,32.40
2023-05-23T11:22:36.103Z,32.66
2023-05-23T11:25:10.039Z,32.73
2023-05-23T11:27:39.984Z,30.60
2023-05-23T11:30:10.470Z,30.97
2023-05-23T11:32:38.393Z,30.59
2023-05-23T11:35:10.606Z,30.77
2023-05-23T11:37:38.977Z,30.53
2023-05-23T11:40:36.475Z,30.49
2023-05-23T11:43:06.157Z,30.88
2023-05-23T11:45:35.337Z,31.22
2023-05-23T11:48:13.111Z,30.97
2023-05-23T11:50:58.791Z,31.92
2023-05-23T11:53:27.936Z,31.72
2023-05-23T11:56:01.688Z,31.39
2023-05-23T11:58:36.454Z,30.98
2023-05-23T12:01:06.501Z,31.38
2023-05-23T12:03:35.326Z,32.48
2023-05-23T12:06:03.138Z,31.99
2023-05-23T12:08:30.796Z,32.16
2023-05-23T12:11:00.585Z,31.67
2023-05-23T12:13:31.546Z,31.46
2023-05-23T12:16:01.402Z,31.62
2023-05-23T12:18:31.504Z,33.02
2023-05-23T12:21:08.599Z,32.25
2023-05-23T12:23:36.873Z,31.75
2023-05-23T12:26:07.157Z,32.50
2023-05-23T12:28:36.470Z,32.28
2023-05-23T12:31:17.316Z,33.20
2023-05-23T12:33:46.130Z,33.19
2023-05-23T12:36:14.860Z,32.07
2023-05-23T12:38:45.417Z,33.78
2023-05-23T12:41:16.855Z,33.38
2023-05-23T12:43:55.913Z,31.85
2023-05-23T12:46:25.218Z,32.35
2023-05-23T12:48:53.539Z,32.62
2023-05-23T12:51:21.694Z,31.73
2023-05-23T12:53:49.219Z,31.79
2023-05-23T12:56:16.969Z,31.30
2023-05-23T12:58:44.510Z,31.54
2023-05-23T13:01:12.037Z,31.15
2023-05-23T13:03:39.845Z,31.20
2023-05-23T13:06:07.877Z,30.41
2023-05-23T13:08:35.319Z,30.33
2023-05-23T13:11:03.294Z,30.71
2023-05-23T13:13:32.514Z,31.17
2023-05-23T13:15:59.972Z,31.93
2023-05-23T13:18:27.737Z,29.57
2023-05-23T13:20:55.368Z,29.67
2023-05-23T13:23:22.958Z,29.81
2023-05-23T13:25:51.303Z,28.69
2023-05-23T13:28:18.866Z,28.34
2023-05-23T13:30:47.499Z,28.46
2023-05-23T13:33:15.924Z,29.29
2023-05-23T13:35:44.348Z,29.47
2023-05-23T13:38:12.753Z,28.64
2023-05-23T13:40:40.701Z,28.45
2023-05-23T13:43:08.567Z,28.61
2023-05-23T13:45:36.105Z,27.96
2023-05-23T13:48:04.031Z,26.46
2023-05-23T13:50:31.767Z,26.71
2023-05-23T13:52:59.548Z,27.46
2023-05-23T13:55:27.637Z,28.61
2023-05-23T13:57:55.180Z,28.77
2023-05-23T14:00:22.686Z,29.26
2023-05-23T14:02:50.569Z,28.47
2023-05-23T14:05:19.496Z,29.57
2023-05-23T14:07:47.546Z,28.01
2023-05-23T14:10:17.387Z,28.96
2023-05-23T14:12:45.021Z,29.34
2023-05-23T14:15:12.623Z,28.80
2023-05-23T14:17:40.423Z,28.24
2023-05-23T14:20:08.746Z,28.45
2023-05-23T14:22:36.514Z,29.28
2023-05-23T14:25:04.603Z,29.63
2023-05-23T14:27:32.920Z,29.79
2023-05-23T14:30:00.507Z,29.11
2023-05-23T14:32:28.372Z,29.76
2023-05-23T14:34:55.887Z,29.50
2023-05-23T14:37:23.402Z,29.75
2023-05-23T14:39:51.123Z,29.56
2023-05-23T14:42:18.586Z,29.37
2023-05-23T14:44:46.354Z,29.39
2023-05-23T14:47:14.249Z,29.91
2023-05-23T14:49:41.761Z,30.76
2023-05-23T14:52:09.274Z,31.48
2023-05-23T14:54:37.138Z,30.71
2023-05-23T14:57:05.117Z,30.61
2023-05-23T14:59:32.649Z,30.36
2023-05-23T15:02:00.542Z,30.50
2023-05-23T15:04:28.195Z,30.74
2023-05-23T15:06:55.819Z,30.05
2023-05-23T15:09:23.657Z,30.92
2023-05-23T15:11:51.162Z,31.24
2023-05-23T15:14:18.694Z,30.38
2023-05-23T15:16:48.837Z,29.59
2023-05-23T15:19:16.895Z,29.39
2023-05-23T15:21:50.341Z,29.43
2023-05-23T15:24:19.552Z,29.46
2023-05-23T15:26:47.513Z,29.61
2023-05-23T15:29:18.119Z,31.16
2023-05-23T15:31:46.132Z,29.92
2023-05-23T15:34:13.855Z,30.66
2023-05-23T15:36:41.301Z,30.16
2023-05-23T15:39:09.167Z,29.04
2023-05-23T15:41:36.644Z,29.32
2023-05-23T15:44:04.240Z,29.74
2023-05-23T15:46:32.082Z,29.91
2023-05-23T15:49:05.018Z,29.60
2023-05-23T15:51:38.318Z,29.70
2023-05-23T15:54:06.427Z,29.93
2023-05-23T15:56:33.894Z,29.03
2023-05-23T15:59:01.660Z,29.85
2023-05-23T16:01:29.598Z,29.57
2023-05-23T16:03:57.468Z,29.61
2023-05-23T16:06:25.399Z,29.42
2023-05-23T16:08:52.876Z,29.74
2023-05-23T16:11:21.818Z,29.61
2023-05-23T16:13:49.263Z,29.52
2023-05-23T16:16:16.781Z,29.56
2023-05-23T16:18:44.492Z,30.03
2023-05-23T16:21:12.124Z,29.93
2023-05-23T16:23:39.721Z,30.28
2023-05-23T16:26:07.467Z,30.45
2023-05-23T16:28:34.941Z,30.52
2023-05-23T16:31:02.473Z,30.95
2023-05-23T16:33:30.216Z,30.82
2023-05-23T16:35:57.696Z,30.69
2023-05-23T16:38:25.473Z,31.00
2023-05-23T16:40:53.196Z,31.19
2023-05-23T16:43:20.637Z,31.45
2023-05-23T16:45:48.430Z,32.21
2023-05-23T16:48:16.486Z,32.26
2023-05-23T16:50:44.370Z,32.09
2023-05-23T16:53:12.158Z,32.52
2023-05-23T16:55:40.261Z,33.12
2023-05-23T16:58:07.878Z,33.09
2023-05-23T17:00:35.384Z,33.38
2023-05-23T17:03:03.298Z,33.70
2023-05-23T17:05:30.984Z,33.65
2023-05-23T17:07:58.470Z,34.00
2023-05-23T17:10:26.203Z,33.76
2023-05-23T17:12:53.777Z,34.08
2023-05-23T17:15:21.274Z,34.49
2023-05-23T17:17:49.153Z,34.11
2023-05-23T17:20:16.701Z,39.52
2023-05-23T17:22:44.175Z,42.01
2023-05-23T17:25:11.930Z,44.06
2023-05-23T17:27:39.433Z,45.75
2023-05-23T17:30:07.452Z,47.22
2023-05-23T17:32:35.473Z,48.69
2023-05-23T17:35:02.984Z,50.33
2023-05-23T17:37:31.030Z,50.32
2023-05-23T17:39:58.880Z,50.75
2023-05-23T17:42:26.417Z,52.21
2023-05-23T17:44:53.859Z,51.74
2023-05-23T17:47:22.123Z,54.11
2023-05-23T17:49:49.623Z,53.92
2023-05-23T17:52:17.163Z,54.11
2023-05-23T17:54:44.954Z,53.37
2023-05-23T17:57:12.560Z,53.25
2023-05-23T17:59:40.193Z,53.40
2023-05-23T18:02:09.320Z,53.97
2023-05-23T18:04:37.257Z,53.66
2023-05-23T18:07:05.980Z,54.93
2023-05-23T18:09:33.599Z,54.01
2023-05-23T18:12:01.348Z,53.44
2023-05-23T18:14:28.923Z,55.85
2023-05-23T18:16:56.421Z,58.62
2023-05-23T18:19:24.195Z,58.92
2023-05-23T18:21:51.683Z,58.60
2023-05-23T18:24:19.226Z,59.62
2023-05-23T18:26:47.122Z,60.11
2023-05-23T18:29:14.566Z,59.42
2023-05-23T18:31:42.218Z,61.22
2023-05-23T18:34:10.326Z,62.41
2023-05-23T18:36:37.930Z,63.36
2023-05-23T18:39:05.727Z,62.88
2023-05-23T18:41:33.502Z,63.32
2023-05-23T18:44:02.122Z,62.93
2023-05-23T18:46:30.266Z,63.64
2023-05-23T18:48:58.421Z,64.95
2023-05-23T18:51:26.674Z,64.33
2023-05-23T18:53:54.248Z,64.78
2023-05-23T18:56:22.213Z,63.43
2023-05-23T18:58:51.541Z,61.77
2023-05-23T19:01:19.387Z,60.66
2023-05-23T19:03:47.340Z,58.52
2023-05-23T19:06:15.029Z,57.33
2023-05-23T19:08:42.898Z,56.25
2023-05-23T19:11:10.910Z,55.97
2023-05-23T19:13:38.533Z,55.55
2023-05-23T19:16:06.289Z,55.08
2023-05-23T19:18:34.088Z,53.65
2023-05-23T19:21:01.873Z,52.88
2023-05-23T19:23:29.745Z,52.82
2023-05-23T19:25:57.536Z,51.83
2023-05-23T19:28:25.060Z,52.53
2023-05-23T19:30:52.554Z,52.64
2023-05-23T19:33:21.441Z,52.34
2023-05-23T19:35:49.341Z,53.37
2023-05-23T19:38:16.888Z,52.83
2023-05-23T19:40:47.082Z,53.19
2023-05-23T19:43:14.683Z,53.08
2023-05-23T19:45:42.271Z,51.07
2023-05-23T19:48:10.150Z,51.85
2023-05-23T19:50:39.315Z,50.43
2023-05-23T19:53:07.054Z,50.28
2023-05-23T19:55:35.362Z,49.74
2023-05-23T19:58:02.896Z,52.10
2023-05-23T20:00:30.490Z,51.37
2023-05-23T20:02:58.414Z,51.74
2023-05-23T20:05:26.109Z,51.50
2023-05-23T20:07:53.813Z,51.67
2023-05-23T20:10:21.510Z,51.01
2023-05-23T20:12:49.276Z,51.20
2023-05-23T20:15:21.740Z,52.00
2023-05-23T20:17:56.358Z,54.30
2023-05-23T20:20:24.184Z,54.58
2023-05-23T20:22:51.831Z,53.41
2023-05-23T20:25:19.632Z,52.54
2023-05-23T20:27:47.085Z,51.97
2023-05-23T20:30:14.583Z,51.79
2023-05-23T20:32:42.856Z,51.84
2023-05-23T20:35:10.564Z,52.36
2023-05-23T20:37:39.254Z,51.86
2023-05-23T20:40:07.887Z,51.52
2023-05-23T20:42:36.465Z,50.95
2023-05-23T20:45:07.069Z,51.56
2023-05-23T20:47:37.437Z,50.55
2023-05-23T20:50:05.344Z,50.62
2023-05-23T20:52:32.902Z,50.78
2023-05-23T20:55:01.146Z,50.35
2023-05-23T20:57:30.117Z,50.01
2023-05-23T20:59:57.759Z,50.46
2023-05-23T21:02:25.851Z,50.55
2023-05-23T21:04:53.490Z,50.30
2023-05-23T21:07:20.972Z,50.64
2023-05-23T21:09:48.862Z,51.08
2023-05-23T21:12:16.277Z,51.69
2023-05-23T21:14:43.769Z,52.02
2023-05-23T21:17:11.684Z,52.35
2023-05-23T21:19:39.377Z,52.34
2023-05-23T21:22:07.015Z,52.34
2023-05-23T21:24:34.806Z,52.00
2023-05-23T21:27:02.986Z,51.93
2023-05-23T21:29:30.441Z,52.45
2023-05-23T21:31:58.788Z,52.06
2023-05-23T21:34:26.263Z,52.07
2023-05-23T21:36:53.781Z,52.24
2023-05-23T21:39:21.612Z,52.18
2023-05-23T21:41:49.172Z,52.55
2023-05-23T21:44:17.780Z,52.59
2023-05-23T21:46:45.869Z,52.72
2023-05-23T21:49:13.500Z,52.87
2023-05-23T21:51:41.002Z,53.02
2023-05-23T21:54:08.790Z,53.06
2023-05-23T21:56:36.322Z,53.24
2023-05-23T21:59:04.263Z,53.40
2023-05-23T22:01:32.440Z,53.50
2023-05-23T22:04:00.533Z,53.71
2023-05-23T22:06:28.079Z,54.26
2023-05-23T22:08:55.625Z,54.64
2023-05-23T22:11:23.370Z,54.56
2023-05-23T22:13:50.960Z,54.57
2023-05-23T22:16:18.545Z,54.56
2023-05-23T22:21:16.670Z,54.55
2023-05-23T22:23:44.119Z,54.54
2023-05-23T22:26:12.730Z,54.68
2023-05-23T22:28:40.393Z,54.63
2023-05-23T22:31:08.764Z,54.86
2023-05-23T22:33:37.655Z,54.35
2023-05-23T22:36:06.162Z,54.48
2023-05-23T22:38:34.071Z,54.51
2023-05-23T22:41:03.152Z,54.42
2023-05-23T22:43:30.911Z,54.47
2023-05-23T22:45:58.448Z,54.41
2023-05-23T22:48:26.245Z,54.37
2023-05-23T22:50:54.918Z,54.33
2023-05-23T22:53:24.979Z,54.46
2023-05-23T22:55:52.729Z,54.31
2023-05-23T22:58:20.563Z,54.24
2023-05-23T23:00:48.085Z,54.28
2023-05-23T23:03:16.090Z,54.64
2023-05-23T23:05:44.434Z,54.60
2023-05-23T23:08:12.404Z,54.62
2023-05-23T23:10:41.878Z,54.29
2023-05-23T23:13:09.524Z,54.25
2023-05-23T23:15:37.555Z,54.76
2023-05-23T23:18:06.030Z,55.00
2023-05-23T23:20:33.654Z,54.69
2023-05-23T23:23:01.219Z,54.68
2023-05-23T23:25:30.368Z,54.82
2023-05-23T23:27:57.845Z,54.88
2023-05-23T23:30:25.834Z,55.56
2023-05-23T23:32:53.606Z,55.19
2023-05-23T23:35:21.846Z,55.31
2023-05-23T23:37:49.344Z,55.39
2023-05-23T23:40:17.164Z,55.50
2023-05-23T23:42:44.666Z,55.88
2023-05-23T23:45:12.193Z,55.77
2023-05-23T23:47:39.982Z,56.08
2023-05-23T23:50:08.378Z,56.39
2023-05-23T23:52:37.395Z,56.41
2023-05-23T23:55:05.691Z,56.70
2023-05-23T23:57:33.236Z,56.62
